sensor_id;sensor_type;location;lat;lon;timestamp;temperature;humidity
64869;DHT22;51349;52.424;10.840;2023-05-16T00:03:04;10.00;99.90
64869;DHT22;51349;52.424;10.840;2023-05-16T00:08:05;10.00;99.90
64869;DHT22;51349;52.424;10.840;2023-05-16T00:13:06;10.00;99.90
64869;DHT22;51349;52.424;10.840;2023-05-16T00:18:06;10.00;99.90
64869;DHT22;51349;52.424;10.840;2023-05-16T00:23:08;9.90;99.90
64869;DHT22;51349;52.424;10.840;2023-05-16T00:28:08;9.90;99.90
64869;DHT22;51349;52.424;10.840;2023-05-16T00:33:10;9.90;99.90
64869;DHT22;51349;52.424;10.840;2023-05-16T00:38:10;9.90;99.90
64869;DHT22;51349;52.424;10.840;2023-05-16T00:43:11;9.90;99.90
64869;DHT22;51349;52.424;10.840;2023-05-16T00:48:13;9.90;99.90
64869;DHT22;51349;52.424;10.840;2023-05-16T00:53:14;9.90;99.90
64869;DHT22;51349;52.424;10.840;2023-05-16T00:58:15;9.90;99.90
64869;DHT22;51349;52.424;10.840;2023-05-16T01:03:16;10.00;99.90
64869;DHT22;51349;52.424;10.840;2023-05-16T01:08:17;10.00;99.90
64869;DHT22;51349;52.424;10.840;2023-05-16T01:13:54;10.00;99.90
64869;DHT22;51349;52.424;10.840;2023-05-16T01:19:21;10.00;99.90
64869;DHT22;51349;52.424;10.840;2023-05-16T01:24:53;10.00;99.90
64869;DHT22;51349;52.424;10.840;2023-05-16T01:29:59;10.00;99.90
64869;DHT22;51349;52.424;10.840;2023-05-16T01:35:00;10.00;99.90
64869;DHT22;51349;52.424;10.840;2023-05-16T01:40:08;10.00;99.90
64869;DHT22;51349;52.424;10.840;2023-05-16T01:45:28;10.00;99.90
64869;DHT22;51349;52.424;10.840;2023-05-16T01:50:33;10.00;99.90
64869;DHT22;51349;52.424;10.840;2023-05-16T01:55:46;10.00;99.90
64869;DHT22;51349;52.424;10.840;2023-05-16T02:00:47;10.00;99.90
64869;DHT22;51349;52.424;10.840;2023-05-16T02:05:48;10.00;99.90
64869;DHT22;51349;52.424;10.840;2023-05-16T02:10:49;10.00;99.90
64869;DHT22;51349;52.424;10.840;2023-05-16T02:15:49;10.00;99.90
64869;DHT22;51349;52.424;10.840;2023-05-16T02:20:50;10.00;99.90
64869;DHT22;51349;52.424;10.840;2023-05-16T02:25:51;10.10;99.90
64869;DHT22;51349;52.424;10.840;2023-05-16T02:30:58;10.00;99.90
64869;DHT22;51349;52.424;10.840;2023-05-16T02:35:59;10.00;99.90
64869;DHT22;51349;52.424;10.840;2023-05-16T02:40:59;10.00;99.90
64869;DHT22;51349;52.424;10.840;2023-05-16T02:46:18;10.00;99.90
64869;DHT22;51349;52.424;10.840;2023-05-16T02:51:20;9.90;99.90
64869;DHT22;51349;52.424;10.840;2023-05-16T02:56:22;10.00;99.90
64869;DHT22;51349;52.424;10.840;2023-05-16T03:01:22;10.10;99.90
64869;DHT22;51349;52.424;10.840;2023-05-16T03:06:23;10.00;99.90
64869;DHT22;51349;52.424;10.840;2023-05-16T03:11:24;10.10;99.90
64869;DHT22;51349;52.424;10.840;2023-05-16T03:16:26;10.10;99.90
64869;DHT22;51349;52.424;10.840;2023-05-16T03:21:26;10.10;99.90
64869;DHT22;51349;52.424;10.840;2023-05-16T03:26:27;10.20;99.90
64869;DHT22;51349;52.424;10.840;2023-05-16T03:31:28;10.20;99.90
64869;DHT22;51349;52.424;10.840;2023-05-16T03:36:28;10.20;99.90
64869;DHT22;51349;52.424;10.840;2023-05-16T03:41:29;10.20;99.90
64869;DHT22;51349;52.424;10.840;2023-05-16T03:46:30;10.20;99.90
64869;DHT22;51349;52.424;10.840;2023-05-16T03:51:31;10.30;99.90
64869;DHT22;51349;52.424;10.840;2023-05-16T03:56:33;10.30;99.90
64869;DHT22;51349;52.424;10.840;2023-05-16T04:01:34;10.30;99.90
64869;DHT22;51349;52.424;10.840;2023-05-16T04:06:35;10.30;99.90
64869;DHT22;51349;52.424;10.840;2023-05-16T04:11:36;10.40;99.90
64869;DHT22;51349;52.424;10.840;2023-05-16T04:16:38;10.40;99.90
64869;DHT22;51349;52.424;10.840;2023-05-16T04:21:38;10.40;99.90
64869;DHT22;51349;52.424;10.840;2023-05-16T04:26:39;10.40;99.90
64869;DHT22;51349;52.424;10.840;2023-05-16T04:31:40;10.40;99.90
64869;DHT22;51349;52.424;10.840;2023-05-16T04:36:41;10.30;99.90
64869;DHT22;51349;52.424;10.840;2023-05-16T04:41:41;10.30;99.90
64869;DHT22;51349;52.424;10.840;2023-05-16T04:46:42;10.30;99.90
64869;DHT22;51349;52.424;10.840;2023-05-16T04:51:43;10.30;99.90
64869;DHT22;51349;52.424;10.840;2023-05-16T04:56:44;10.30;99.90
64869;DHT22;51349;52.424;10.840;2023-05-16T05:01:44;10.20;99.90
64869;DHT22;51349;52.424;10.840;2023-05-16T05:06:45;10.20;99.90
64869;DHT22;51349;52.424;10.840;2023-05-16T05:11:45;10.30;99.90
64869;DHT22;51349;52.424;10.840;2023-05-16T05:16:46;10.30;99.90
64869;DHT22;51349;52.424;10.840;2023-05-16T05:21:47;10.30;99.90
64869;DHT22;51349;52.424;10.840;2023-05-16T05:26:48;10.40;99.90
64869;DHT22;51349;52.424;10.840;2023-05-16T05:31:48;10.50;99.90
64869;DHT22;51349;52.424;10.840;2023-05-16T05:36:49;10.40;99.90
64869;DHT22;51349;52.424;10.840;2023-05-16T05:41:50;10.50;99.90
64869;DHT22;51349;52.424;10.840;2023-05-16T05:46:50;10.60;99.90
64869;DHT22;51349;52.424;10.840;2023-05-16T05:51:51;10.60;99.90
64869;DHT22;51349;52.424;10.840;2023-05-16T05:56:52;10.70;99.90
64869;DHT22;51349;52.424;10.840;2023-05-16T06:01:53;10.70;99.90
64869;DHT22;51349;52.424;10.840;2023-05-16T06:06:54;10.70;99.90
64869;DHT22;51349;52.424;10.840;2023-05-16T06:11:54;10.80;99.90
64869;DHT22;51349;52.424;10.840;2023-05-16T06:16:55;10.90;99.90
64869;DHT22;51349;52.424;10.840;2023-05-16T06:21:56;10.70;99.90
64869;DHT22;51349;52.424;10.840;2023-05-16T06:26:57;10.60;99.90
64869;DHT22;51349;52.424;10.840;2023-05-16T06:31:57;10.50;99.90
64869;DHT22;51349;52.424;10.840;2023-05-16T06:36:58;10.70;99.90
64869;DHT22;51349;52.424;10.840;2023-05-16T06:41:59;10.90;99.90
64869;DHT22;51349;52.424;10.840;2023-05-16T06:47:00;10.80;99.90
64869;DHT22;51349;52.424;10.840;2023-05-16T06:52:01;10.80;99.90
64869;DHT22;51349;52.424;10.840;2023-05-16T06:57:02;10.90;99.90
64869;DHT22;51349;52.424;10.840;2023-05-16T07:02:04;11.00;99.90
64869;DHT22;51349;52.424;10.840;2023-05-16T07:07:04;11.10;99.90
64869;DHT22;51349;52.424;10.840;2023-05-16T07:12:07;11.10;99.90
64869;DHT22;51349;52.424;10.840;2023-05-16T07:17:08;11.10;99.90
64869;DHT22;51349;52.424;10.840;2023-05-16T07:22:09;11.30;99.90
64869;DHT22;51349;52.424;10.840;2023-05-16T07:27:11;11.70;99.90
64869;DHT22;51349;52.424;10.840;2023-05-16T07:32:12;12.20;99.90
64869;DHT22;51349;52.424;10.840;2023-05-16T07:37:13;12.80;99.90
64869;DHT22;51349;52.424;10.840;2023-05-16T07:42:15;13.00;99.90
64869;DHT22;51349;52.424;10.840;2023-05-16T07:47:16;13.30;99.90
64869;DHT22;51349;52.424;10.840;2023-05-16T07:52:24;12.90;99.90
64869;DHT22;51349;52.424;10.840;2023-05-16T07:57:34;13.10;99.90
64869;DHT22;51349;52.424;10.840;2023-05-16T08:02:44;12.90;99.90
64869;DHT22;51349;52.424;10.840;2023-05-16T08:07:44;13.30;99.90
64869;DHT22;51349;52.424;10.840;2023-05-16T08:12:45;13.40;99.90
64869;DHT22;51349;52.424;10.840;2023-05-16T08:17:47;14.00;99.90
64869;DHT22;51349;52.424;10.840;2023-05-16T08:22:49;13.80;99.90
64869;DHT22;51349;52.424;10.840;2023-05-16T08:27:52;12.90;99.90
64869;DHT22;51349;52.424;10.840;2023-05-16T08:32:56;13.50;99.90
64869;DHT22;51349;52.424;10.840;2023-05-16T08:38:07;13.30;99.90
64869;DHT22;51349;52.424;10.840;2023-05-16T08:43:09;13.00;99.20
64869;DHT22;51349;52.424;10.840;2023-05-16T08:48:19;13.60;99.20
64869;DHT22;51349;52.424;10.840;2023-05-16T08:53:28;13.00;98.10
64869;DHT22;51349;52.424;10.840;2023-05-16T08:58:31;13.30;98.90
64869;DHT22;51349;52.424;10.840;2023-05-16T09:03:32;14.50;97.80
64869;DHT22;51349;52.424;10.840;2023-05-16T09:08:32;14.00;95.80
64869;DHT22;51349;52.424;10.840;2023-05-16T09:13:34;14.20;96.50
64869;DHT22;51349;52.424;10.840;2023-05-16T09:18:35;14.00;96.90
64869;DHT22;51349;52.424;10.840;2023-05-16T09:23:37;13.60;96.00
64869;DHT22;51349;52.424;10.840;2023-05-16T09:28:38;13.50;96.20
64869;DHT22;51349;52.424;10.840;2023-05-16T09:39:04;14.20;95.30
64869;DHT22;51349;52.424;10.840;2023-05-16T09:44:07;14.60;93.90
64869;DHT22;51349;52.424;10.840;2023-05-16T09:49:11;14.70;92.00
64869;DHT22;51349;52.424;10.840;2023-05-16T09:54:12;15.40;93.90
64869;DHT22;51349;52.424;10.840;2023-05-16T09:59:14;15.60;90.40
64869;DHT22;51349;52.424;10.840;2023-05-16T10:04:15;15.50;87.10
64869;DHT22;51349;52.424;10.840;2023-05-16T10:09:16;16.10;92.40
64869;DHT22;51349;52.424;10.840;2023-05-16T10:14:18;15.70;89.10
64869;DHT22;51349;52.424;10.840;2023-05-16T10:19:20;16.40;88.00
64869;DHT22;51349;52.424;10.840;2023-05-16T10:24:54;16.30;81.80
64869;DHT22;51349;52.424;10.840;2023-05-16T10:29:55;16.50;81.00
64869;DHT22;51349;52.424;10.840;2023-05-16T10:35:00;15.70;81.80
64869;DHT22;51349;52.424;10.840;2023-05-16T10:40:04;16.30;85.90
64869;DHT22;51349;52.424;10.840;2023-05-16T10:45:18;15.80;79.70
64869;DHT22;51349;52.424;10.840;2023-05-16T10:50:41;16.00;81.10
64869;DHT22;51349;52.424;10.840;2023-05-16T11:01:29;16.20;76.70
64869;DHT22;51349;52.424;10.840;2023-05-16T11:06:43;15.90;77.20
64869;DHT22;51349;52.424;10.840;2023-05-16T11:11:47;15.70;73.80
64869;DHT22;51349;52.424;10.840;2023-05-16T11:16:53;16.40;73.40
64869;DHT22;51349;52.424;10.840;2023-05-16T11:27:21;16.40;73.60
64869;DHT22;51349;52.424;10.840;2023-05-16T11:32:22;16.30;72.40
64869;DHT22;51349;52.424;10.840;2023-05-16T11:37:23;16.10;76.30
64869;DHT22;51349;52.424;10.840;2023-05-16T11:42:28;16.50;74.00
64869;DHT22;51349;52.424;10.840;2023-05-16T11:47:31;16.20;75.30
64869;DHT22;51349;52.424;10.840;2023-05-16T11:52:32;16.60;77.80
64869;DHT22;51349;52.424;10.840;2023-05-16T11:57:33;16.30;75.40
64869;DHT22;51349;52.424;10.840;2023-05-16T12:02:34;16.70;75.80
64869;DHT22;51349;52.424;10.840;2023-05-16T12:07:35;16.90;71.40
64869;DHT22;51349;52.424;10.840;2023-05-16T12:12:38;16.40;70.50
64869;DHT22;51349;52.424;10.840;2023-05-16T12:17:40;16.40;71.40
64869;DHT22;51349;52.424;10.840;2023-05-16T12:22:47;16.40;73.90
64869;DHT22;51349;52.424;10.840;2023-05-16T12:27:54;16.70;71.80
64869;DHT22;51349;52.424;10.840;2023-05-16T12:33:08;16.40;74.20
64869;DHT22;51349;52.424;10.840;2023-05-16T12:38:13;16.10;76.70
64869;DHT22;51349;52.424;10.840;2023-05-16T12:43:15;16.00;71.80
64869;DHT22;51349;52.424;10.840;2023-05-16T12:48:15;16.10;70.30
64869;DHT22;51349;52.424;10.840;2023-05-16T12:53:18;15.50;72.80
64869;DHT22;51349;52.424;10.840;2023-05-16T12:58:18;15.30;75.70
64869;DHT22;51349;52.424;10.840;2023-05-16T13:03:19;15.70;69.90
64869;DHT22;51349;52.424;10.840;2023-05-16T13:08:20;16.10;73.00
64869;DHT22;51349;52.424;10.840;2023-05-16T13:13:21;16.60;70.50
64869;DHT22;51349;52.424;10.840;2023-05-16T13:18:22;16.30;63.40
64869;DHT22;51349;52.424;10.840;2023-05-16T13:23:23;16.50;64.90
64869;DHT22;51349;52.424;10.840;2023-05-16T13:28:24;16.80;64.20
64869;DHT22;51349;52.424;10.840;2023-05-16T13:33:25;16.90;65.20
64869;DHT22;51349;52.424;10.840;2023-05-16T13:38:26;16.80;66.00
64869;DHT22;51349;52.424;10.840;2023-05-16T13:43:26;16.60;71.00
64869;DHT22;51349;52.424;10.840;2023-05-16T13:48:28;15.60;75.10
64869;DHT22;51349;52.424;10.840;2023-05-16T13:53:29;16.40;75.30
64869;DHT22;51349;52.424;10.840;2023-05-16T13:58:29;16.20;74.00
64869;DHT22;51349;52.424;10.840;2023-05-16T14:03:30;16.10;73.80
64869;DHT22;51349;52.424;10.840;2023-05-16T14:08:31;16.00;70.30
64869;DHT22;51349;52.424;10.840;2023-05-16T14:13:32;15.90;70.30
64869;DHT22;51349;52.424;10.840;2023-05-16T14:18:56;16.30;71.30
64869;DHT22;51349;52.424;10.840;2023-05-16T14:23:56;16.40;67.70
64869;DHT22;51349;52.424;10.840;2023-05-16T14:28:57;16.00;60.10
64869;DHT22;51349;52.424;10.840;2023-05-16T14:33:58;15.90;58.80
64869;DHT22;51349;52.424;10.840;2023-05-16T14:39:01;15.90;63.60
64869;DHT22;51349;52.424;10.840;2023-05-16T14:49:43;15.70;63.00
64869;DHT22;51349;52.424;10.840;2023-05-16T14:54:44;16.00;61.20
64869;DHT22;51349;52.424;10.840;2023-05-16T14:59:44;16.30;63.50
64869;DHT22;51349;52.424;10.840;2023-05-16T15:05:14;16.30;64.90
64869;DHT22;51349;52.424;10.840;2023-05-16T15:10:33;16.50;65.10
64869;DHT22;51349;52.424;10.840;2023-05-16T15:15:34;15.90;67.00
64869;DHT22;51349;52.424;10.840;2023-05-16T15:20:38;15.50;66.40
64869;DHT22;51349;52.424;10.840;2023-05-16T15:25:39;15.20;66.50
64869;DHT22;51349;52.424;10.840;2023-05-16T15:30:39;15.60;67.90
64869;DHT22;51349;52.424;10.840;2023-05-16T15:35:40;15.50;68.30
64869;DHT22;51349;52.424;10.840;2023-05-16T15:40:41;15.50;68.20
64869;DHT22;51349;52.424;10.840;2023-05-16T15:45:43;15.60;70.40
64869;DHT22;51349;52.424;10.840;2023-05-16T15:50:44;16.90;72.30
64869;DHT22;51349;52.424;10.840;2023-05-16T15:55:44;16.60;66.00
64869;DHT22;51349;52.424;10.840;2023-05-16T16:00:47;16.70;65.30
64869;DHT22;51349;52.424;10.840;2023-05-16T16:05:49;16.50;61.60
64869;DHT22;51349;52.424;10.840;2023-05-16T16:10:50;16.40;64.70
64869;DHT22;51349;52.424;10.840;2023-05-16T16:15:50;16.00;67.10
64869;DHT22;51349;52.424;10.840;2023-05-16T16:20:52;16.20;69.60
64869;DHT22;51349;52.424;10.840;2023-05-16T16:25:52;16.00;69.70
64869;DHT22;51349;52.424;10.840;2023-05-16T16:30:53;16.10;71.20
64869;DHT22;51349;52.424;10.840;2023-05-16T16:35:54;16.80;69.80
64869;DHT22;51349;52.424;10.840;2023-05-16T16:40:55;16.80;69.30
64869;DHT22;51349;52.424;10.840;2023-05-16T16:45:55;16.20;65.10
64869;DHT22;51349;52.424;10.840;2023-05-16T16:50:56;15.70;66.00
64869;DHT22;51349;52.424;10.840;2023-05-16T16:55:57;15.10;67.40
64869;DHT22;51349;52.424;10.840;2023-05-16T17:00:58;16.10;68.10
64869;DHT22;51349;52.424;10.840;2023-05-16T17:05:59;16.20;67.40
64869;DHT22;51349;52.424;10.840;2023-05-16T17:11:03;14.90;63.70
64869;DHT22;51349;52.424;10.840;2023-05-16T17:16:13;15.10;66.30
64869;DHT22;51349;52.424;10.840;2023-05-16T17:21:17;15.30;67.40
64869;DHT22;51349;52.424;10.840;2023-05-16T17:26:17;14.70;67.70
64869;DHT22;51349;52.424;10.840;2023-05-16T17:31:21;15.00;69.20
64869;DHT22;51349;52.424;10.840;2023-05-16T17:36:25;14.40;69.80
64869;DHT22;51349;52.424;10.840;2023-05-16T17:41:25;14.20;70.40
64869;DHT22;51349;52.424;10.840;2023-05-16T17:46:26;14.00;71.40
64869;DHT22;51349;52.424;10.840;2023-05-16T17:51:27;13.60;72.20
64869;DHT22;51349;52.424;10.840;2023-05-16T17:56:27;13.50;73.10
64869;DHT22;51349;52.424;10.840;2023-05-16T18:01:28;13.30;74.20
64869;DHT22;51349;52.424;10.840;2023-05-16T18:06:29;13.20;75.80
64869;DHT22;51349;52.424;10.840;2023-05-16T18:11:32;13.30;76.10
64869;DHT22;51349;52.424;10.840;2023-05-16T18:16:32;13.30;76.70
64869;DHT22;51349;52.424;10.840;2023-05-16T18:21:33;13.10;76.50
64869;DHT22;51349;52.424;10.840;2023-05-16T18:26:35;12.90;77.60
64869;DHT22;51349;52.424;10.840;2023-05-16T18:31:37;12.80;78.30
64869;DHT22;51349;52.424;10.840;2023-05-16T18:36:40;12.70;79.60
64869;DHT22;51349;52.424;10.840;2023-05-16T18:41:41;12.60;80.30
64869;DHT22;51349;52.424;10.840;2023-05-16T18:46:46;12.40;80.90
64869;DHT22;51349;52.424;10.840;2023-05-16T18:51:46;12.20;81.50
64869;DHT22;51349;52.424;10.840;2023-05-16T18:56:47;12.10;82.30
64869;DHT22;51349;52.424;10.840;2023-05-16T19:01:48;12.00;83.10
64869;DHT22;51349;52.424;10.840;2023-05-16T19:06:49;11.90;83.40
64869;DHT22;51349;52.424;10.840;2023-05-16T19:11:51;11.80;83.90
64869;DHT22;51349;52.424;10.840;2023-05-16T19:16:51;11.70;84.60
64869;DHT22;51349;52.424;10.840;2023-05-16T19:21:52;11.70;85.30
64869;DHT22;51349;52.424;10.840;2023-05-16T19:26:53;11.50;86.20
64869;DHT22;51349;52.424;10.840;2023-05-16T19:31:53;11.30;87.10
64869;DHT22;51349;52.424;10.840;2023-05-16T19:36:54;11.20;87.20
64869;DHT22;51349;52.424;10.840;2023-05-16T19:41:54;11.10;88.00
64869;DHT22;51349;52.424;10.840;2023-05-16T19:46:55;11.00;88.40
64869;DHT22;51349;52.424;10.840;2023-05-16T19:51:56;10.90;88.80
64869;DHT22;51349;52.424;10.840;2023-05-16T19:56:56;10.80;89.60
64869;DHT22;51349;52.424;10.840;2023-05-16T20:01:58;10.70;90.10
64869;DHT22;51349;52.424;10.840;2023-05-16T20:06:59;10.60;90.30
64869;DHT22;51349;52.424;10.840;2023-05-16T20:11:59;10.50;90.50
64869;DHT22;51349;52.424;10.840;2023-05-16T20:17:00;10.50;90.90
64869;DHT22;51349;52.424;10.840;2023-05-16T20:22:01;10.40;91.50
64869;DHT22;51349;52.424;10.840;2023-05-16T20:27:01;10.30;91.70
64869;DHT22;51349;52.424;10.840;2023-05-16T20:32:02;10.20;92.20
64869;DHT22;51349;52.424;10.840;2023-05-16T20:37:03;10.10;92.80
64869;DHT22;51349;52.424;10.840;2023-05-16T20:42:05;10.10;93.40
64869;DHT22;51349;52.424;10.840;2023-05-16T20:47:10;10.00;94.00
64869;DHT22;51349;52.424;10.840;2023-05-16T20:52:11;10.00;94.30
64869;DHT22;51349;52.424;10.840;2023-05-16T20:57:12;9.90;95.00
64869;DHT22;51349;52.424;10.840;2023-05-16T21:02:13;9.80;95.30
64869;DHT22;51349;52.424;10.840;2023-05-16T21:07:13;9.70;96.10
64869;DHT22;51349;52.424;10.840;2023-05-16T21:12:14;9.60;96.90
64869;DHT22;51349;52.424;10.840;2023-05-16T21:17:15;9.70;97.60
64869;DHT22;51349;52.424;10.840;2023-05-16T21:22:15;9.50;97.90
64869;DHT22;51349;52.424;10.840;2023-05-16T21:27:16;9.50;98.50
64869;DHT22;51349;52.424;10.840;2023-05-16T21:32:27;9.30;99.10
64869;DHT22;51349;52.424;10.840;2023-05-16T21:37:31;9.30;99.70
64869;DHT22;51349;52.424;10.840;2023-05-16T21:42:32;9.30;99.90
64869;DHT22;51349;52.424;10.840;2023-05-16T21:47:33;9.30;99.90
64869;DHT22;51349;52.424;10.840;2023-05-16T21:52:33;9.20;99.90
64869;DHT22;51349;52.424;10.840;2023-05-16T21:57:34;9.10;99.90
64869;DHT22;51349;52.424;10.840;2023-05-16T22:02:35;9.00;99.90
64869;DHT22;51349;52.424;10.840;2023-05-16T22:07:36;8.90;99.90
64869;DHT22;51349;52.424;10.840;2023-05-16T22:12:37;8.90;99.90
64869;DHT22;51349;52.424;10.840;2023-05-16T22:17:38;8.80;99.90
64869;DHT22;51349;52.424;10.840;2023-05-16T22:22:40;8.80;99.90
64869;DHT22;51349;52.424;10.840;2023-05-16T22:27:41;8.70;99.90
64869;DHT22;51349;52.424;10.840;2023-05-16T22:32:42;8.60;99.90
64869;DHT22;51349;52.424;10.840;2023-05-16T22:37:44;8.50;99.90
64869;DHT22;51349;52.424;10.840;2023-05-16T22:42:45;8.50;99.90
64869;DHT22;51349;52.424;10.840;2023-05-16T22:47:46;8.60;99.90
64869;DHT22;51349;52.424;10.840;2023-05-16T22:52:46;8.50;99.90
64869;DHT22;51349;52.424;10.840;2023-05-16T22:57:47;8.50;99.90
64869;DHT22;51349;52.424;10.840;2023-05-16T23:02:48;8.40;99.90
64869;DHT22;51349;52.424;10.840;2023-05-16T23:07:48;8.40;99.90
64869;DHT22;51349;52.424;10.840;2023-05-16T23:12:49;8.30;99.90
64869;DHT22;51349;52.424;10.840;2023-05-16T23:17:50;8.30;99.90
64869;DHT22;51349;52.424;10.840;2023-05-16T23:22:50;8.20;99.90
64869;DHT22;51349;52.424;10.840;2023-05-16T23:27:51;8.20;99.90
64869;DHT22;51349;52.424;10.840;2023-05-16T23:32:56;8.20;99.90
64869;DHT22;51349;52.424;10.840;2023-05-16T23:37:57;8.10;99.90
64869;DHT22;51349;52.424;10.840;2023-05-16T23:42:59;8.20;99.90
64869;DHT22;51349;52.424;10.840;2023-05-16T23:47:59;8.10;99.90
64869;DHT22;51349;52.424;10.840;2023-05-16T23:53:00;8.10;99.90
64869;DHT22;51349;52.424;10.840;2023-05-16T23:58:01;8.00;99.90
